sensor_id;sensor_type;location;lat;lon;timestamp;pressure;altitude;pressure_sealevel;temperature;humidity
69836;BME280;57132;51.972;4.450;2022-09-29T00:02:11;99909.28;;;7.26;100.00
69836;BME280;57132;51.972;4.450;2022-09-29T00:04:36;99907.59;;;7.25;100.00
69836;BME280;57132;51.972;4.450;2022-09-29T00:07:01;99908.44;;;7.25;100.00
69836;BME280;57132;51.972;4.450;2022-09-29T00:09:26;99911.44;;;7.21;100.00
69836;BME280;57132;51.972;4.450;2022-09-29T00:11:54;99910.69;;;7.19;100.00
69836;BME280;57132;51.972;4.450;2022-09-29T00:14:20;99910.81;;;7.17;100.00
69836;BME280;57132;51.972;4.450;2022-09-29T00:16:45;99903.16;;;7.12;100.00
69836;BME280;57132;51.972;4.450;2022-09-29T00:19:10;99904.31;;;7.08;100.00
69836;BME280;57132;51.972;4.450;2022-09-29T00:21:35;99906.59;;;7.02;100.00
69836;BME280;57132;51.972;4.450;2022-09-29T00:24:01;99909.97;;;7.04;100.00
69836;BME280;57132;51.972;4.450;2022-09-29T00:26:26;99914.22;;;7.06;100.00
69836;BME280;57132;51.972;4.450;2022-09-29T00:28:55;99909.03;;;7.05;100.00
69836;BME280;57132;51.972;4.450;2022-09-29T00:31:22;99906.25;;;7.06;100.00
69836;BME280;57132;51.972;4.450;2022-09-29T00:33:47;99905.41;;;7.06;100.00
69836;BME280;57132;51.972;4.450;2022-09-29T00:36:14;99898.19;;;7.08;100.00
69836;BME280;57132;51.972;4.450;2022-09-29T00:38:40;99902.75;;;7.06;100.00
69836;BME280;57132;51.972;4.450;2022-09-29T00:41:06;99906.38;;;7.05;100.00
69836;BME280;57132;51.972;4.450;2022-09-29T00:43:49;99904.56;;;7.05;100.00
69836;BME280;57132;51.972;4.450;2022-09-29T00:46:19;99895.84;;;7.03;100.00
69836;BME280;57132;51.972;4.450;2022-09-29T00:48:47;99898.41;;;7.05;100.00
69836;BME280;57132;51.972;4.450;2022-09-29T00:51:13;99911.56;;;7.06;100.00
69836;BME280;57132;51.972;4.450;2022-09-29T00:53:39;99897.25;;;7.09;100.00
69836;BME280;57132;51.972;4.450;2022-09-29T00:56:06;99902.44;;;7.10;100.00
69836;BME280;57132;51.972;4.450;2022-09-29T01:01:29;99907.53;;;7.13;100.00
69836;BME280;57132;51.972;4.450;2022-09-29T01:03:58;99899.91;;;7.09;100.00
69836;BME280;57132;51.972;4.450;2022-09-29T01:06:30;99898.41;;;7.05;100.00
69836;BME280;57132;51.972;4.450;2022-09-29T01:09:00;99893.84;;;7.07;100.00
69836;BME280;57132;51.972;4.450;2022-09-29T01:11:26;99896.38;;;7.08;100.00
69836;BME280;57132;51.972;4.450;2022-09-29T01:13:53;99897.34;;;7.07;100.00
69836;BME280;57132;51.972;4.450;2022-09-29T01:16:19;99895.53;;;7.08;100.00
69836;BME280;57132;51.972;4.450;2022-09-29T01:18:45;99898.19;;;7.08;100.00
69836;BME280;57132;51.972;4.450;2022-09-29T01:29:24;99896.22;;;7.23;100.00
69836;BME280;57132;51.972;4.450;2022-09-29T01:31:55;99902.28;;;7.25;100.00
69836;BME280;57132;51.972;4.450;2022-09-29T01:39:18;99894.44;;;7.23;100.00
69836;BME280;57132;51.972;4.450;2022-09-29T01:41:49;99889.97;;;7.24;100.00
69836;BME280;57132;51.972;4.450;2022-09-29T01:46:51;99898.88;;;7.23;100.00
69836;BME280;57132;51.972;4.450;2022-09-29T01:49:18;99896.34;;;7.21;100.00
69836;BME280;57132;51.972;4.450;2022-09-29T01:51:54;99896.34;;;7.21;100.00
69836;BME280;57132;51.972;4.450;2022-09-29T01:54:23;99896.22;;;7.23;100.00
69836;BME280;57132;51.972;4.450;2022-09-29T01:56:55;99892.72;;;7.22;100.00
69836;BME280;57132;51.972;4.450;2022-09-29T01:59:25;99898.03;;;7.22;100.00
69836;BME280;57132;51.972;4.450;2022-09-29T02:01:53;99900.38;;;7.27;100.00
69836;BME280;57132;51.972;4.450;2022-09-29T02:04:23;99894.84;;;7.30;100.00
69836;BME280;57132;51.972;4.450;2022-09-29T02:06:53;99898.22;;;7.32;100.00
69836;BME280;57132;51.972;4.450;2022-09-29T02:09:22;99892.06;;;7.31;100.00
69836;BME280;57132;51.972;4.450;2022-09-29T02:11:49;99896.53;;;7.31;100.00
69836;BME280;57132;51.972;4.450;2022-09-29T02:14:21;99897.50;;;7.30;100.00
69836;BME280;57132;51.972;4.450;2022-09-29T02:16:54;99892.19;;;7.30;100.00
69836;BME280;57132;51.972;4.450;2022-09-29T02:19:24;99891.56;;;7.26;100.00
69836;BME280;57132;51.972;4.450;2022-09-29T02:21:51;99893.59;;;7.23;100.00
69836;BME280;57132;51.972;4.450;2022-09-29T02:24:18;99891.69;;;7.25;100.00
69836;BME280;57132;51.972;4.450;2022-09-29T02:26:44;99899.72;;;7.23;100.00
69836;BME280;57132;51.972;4.450;2022-09-29T02:29:09;99896.34;;;7.21;100.00
69836;BME280;57132;51.972;4.450;2022-09-29T02:31:35;99894.75;;;7.19;100.00
69836;BME280;57132;51.972;4.450;2022-09-29T02:34:01;99894.88;;;7.17;100.00
69836;BME280;57132;51.972;4.450;2022-09-29T02:39:25;99893.16;;;7.16;100.00
69836;BME280;57132;51.972;4.450;2022-09-29T02:42:13;99897.63;;;7.15;100.00
69836;BME280;57132;51.972;4.450;2022-09-29T02:54:59;99900.19;;;7.04;100.00
69836;BME280;57132;51.972;4.450;2022-09-29T03:00:04;99901.50;;;6.99;100.00
69836;BME280;57132;51.972;4.450;2022-09-29T03:02:33;99904.16;;;6.99;100.00
69836;BME280;57132;51.972;4.450;2022-09-29T03:04:58;99901.50;;;6.99;100.00
69836;BME280;57132;51.972;4.450;2022-09-29T03:07:23;99899.88;;;6.96;100.00
69836;BME280;57132;51.972;4.450;2022-09-29T03:09:49;99904.47;;;6.94;100.00
69836;BME280;57132;51.972;4.450;2022-09-29T03:12:14;99907.22;;;6.93;100.00
69836;BME280;57132;51.972;4.450;2022-09-29T03:14:39;99905.44;;;6.93;100.00
69836;BME280;57132;51.972;4.450;2022-09-29T03:17:04;99901.31;;;6.89;100.00
69836;BME280;57132;51.972;4.450;2022-09-29T03:19:30;99908.50;;;6.87;100.00
69836;BME280;57132;51.972;4.450;2022-09-29T03:21:56;99905.97;;;6.85;100.00
69836;BME280;57132;51.972;4.450;2022-09-29T03:24:22;99912.13;;;6.86;100.00
69836;BME280;57132;51.972;4.450;2022-09-29T03:26:47;99908.50;;;6.87;100.00
69836;BME280;57132;51.972;4.450;2022-09-29T03:29:12;99907.47;;;6.89;100.00
69836;BME280;57132;51.972;4.450;2022-09-29T03:31:40;99903.22;;;6.87;100.00
69836;BME280;57132;51.972;4.450;2022-09-29T03:34:06;99908.50;;;6.87;100.00
69836;BME280;57132;51.972;4.450;2022-09-29T03:36:31;99914.66;;;6.87;100.00
69836;BME280;57132;51.972;4.450;2022-09-29T03:38:56;99911.03;;;6.88;100.00
69836;BME280;57132;51.972;4.450;2022-09-29T03:41:21;99903.09;;;6.88;100.00
69836;BME280;57132;51.972;4.450;2022-09-29T03:43:47;99916.69;;;6.84;100.00
69836;BME280;57132;51.972;4.450;2022-09-29T03:46:12;99915.09;;;6.81;100.00
69836;BME280;57132;51.972;4.450;2022-09-29T03:48:37;99917.97;;;6.78;100.00
69836;BME280;57132;51.972;4.450;2022-09-29T03:51:03;99914.69;;;6.75;100.00
69836;BME280;57132;51.972;4.450;2022-09-29T03:53:28;99918.19;;;6.75;100.00
69836;BME280;57132;51.972;4.450;2022-09-29T03:55:53;99913.84;;;6.74;100.00
69836;BME280;57132;51.972;4.450;2022-09-29T03:58:19;99915.53;;;6.75;100.00
69836;BME280;57132;51.972;4.450;2022-09-29T04:00:44;99920.94;;;6.74;100.00
69836;BME280;57132;51.972;4.450;2022-09-29T04:03:11;99918.28;;;6.74;100.00
69836;BME280;57132;51.972;4.450;2022-09-29T04:05:36;99916.56;;;6.73;100.00
69836;BME280;57132;51.972;4.450;2022-09-29T04:08:03;99922.84;;;6.72;100.00
69836;BME280;57132;51.972;4.450;2022-09-29T04:10:29;99919.66;;;6.67;100.00
69836;BME280;57132;51.972;4.450;2022-09-29T04:12:54;99920.50;;;6.54;100.00
69836;BME280;57132;51.972;4.450;2022-09-29T04:15:19;99924.22;;;6.52;100.00
69836;BME280;57132;51.972;4.450;2022-09-29T04:17:44;99925.91;;;6.40;100.00
69836;BME280;57132;51.972;4.450;2022-09-29T04:20:10;99922.47;;;6.25;100.00
69836;BME280;57132;51.972;4.450;2022-09-29T04:22:35;99923.97;;;6.16;100.00
69836;BME280;57132;51.972;4.450;2022-09-29T04:25:00;99931.25;;;6.13;100.00
69836;BME280;57132;51.972;4.450;2022-09-29T04:30:35;99931.03;;;6.03;100.00
69836;BME280;57132;51.972;4.450;2022-09-29T04:33:00;99929.63;;;5.98;100.00
69836;BME280;57132;51.972;4.450;2022-09-29T04:35:25;99938.66;;;5.95;100.00
69836;BME280;57132;51.972;4.450;2022-09-29T04:37:53;99944.22;;;5.90;100.00
69836;BME280;57132;51.972;4.450;2022-09-29T04:40:18;99950.56;;;5.88;100.00
69836;BME280;57132;51.972;4.450;2022-09-29T04:42:44;99947.38;;;5.83;100.00
69836;BME280;57132;51.972;4.450;2022-09-29T04:45:09;99948.53;;;5.79;100.00
69836;BME280;57132;51.972;4.450;2022-09-29T04:47:35;99957.63;;;5.75;100.00
69836;BME280;57132;51.972;4.450;2022-09-29T04:50:00;99956.78;;;5.74;100.00
69836;BME280;57132;51.972;4.450;2022-09-29T04:52:25;99960.34;;;5.73;100.00
69836;BME280;57132;51.972;4.450;2022-09-29T04:54:50;99961.41;;;5.71;100.00
69836;BME280;57132;51.972;4.450;2022-09-29T04:57:16;99964.13;;;5.69;100.00
69836;BME280;57132;51.972;4.450;2022-09-29T04:59:41;99970.38;;;5.68;100.00
69836;BME280;57132;51.972;4.450;2022-09-29T05:02:06;99972.19;;;5.67;100.00
69836;BME280;57132;51.972;4.450;2022-09-29T05:04:31;99967.84;;;5.66;100.00
69836;BME280;57132;51.972;4.450;2022-09-29T05:06:57;99976.06;;;5.62;100.00
69836;BME280;57132;51.972;4.450;2022-09-29T05:09:22;99973.91;;;5.54;100.00
69836;BME280;57132;51.972;4.450;2022-09-29T05:11:47;99974.19;;;5.50;100.00
69836;BME280;57132;51.972;4.450;2022-09-29T05:14:12;99985.75;;;5.49;100.00
69836;BME280;57132;51.972;4.450;2022-09-29T05:16:38;99979.50;;;5.50;100.00
69836;BME280;57132;51.972;4.450;2022-09-29T05:19:03;99984.59;;;5.53;100.00
69836;BME280;57132;51.972;4.450;2022-09-29T05:21:28;99983.28;;;5.60;100.00
69836;BME280;57132;51.972;4.450;2022-09-29T05:23:54;99984.34;;;5.70;100.00
69836;BME280;57132;51.972;4.450;2022-09-29T05:26:19;99984.63;;;5.80;100.00
69836;BME280;57132;51.972;4.450;2022-09-29T05:28:44;99989.50;;;5.86;100.00
69836;BME280;57132;51.972;4.450;2022-09-29T05:31:10;99991.31;;;5.85;100.00
69836;BME280;57132;51.972;4.450;2022-09-29T05:33:36;99995.22;;;5.80;100.00
69836;BME280;57132;51.972;4.450;2022-09-29T05:36:05;99994.94;;;5.70;100.00
69836;BME280;57132;51.972;4.450;2022-09-29T05:38:31;99998.75;;;5.66;100.00
69836;BME280;57132;51.972;4.450;2022-09-29T05:40:57;100002.16;;;5.68;100.00
69836;BME280;57132;51.972;4.450;2022-09-29T05:43:22;99997.34;;;5.60;100.00
69836;BME280;57132;51.972;4.450;2022-09-29T05:45:47;99991.69;;;5.52;100.00
69836;BME280;57132;51.972;4.450;2022-09-29T05:48:12;99998.25;;;5.47;100.00
69836;BME280;57132;51.972;4.450;2022-09-29T05:50:38;100004.38;;;5.47;100.00
69836;BME280;57132;51.972;4.450;2022-09-29T05:53:09;99997.28;;;5.48;100.00
69836;BME280;57132;51.972;4.450;2022-09-29T05:55:35;100008.81;;;5.47;100.00
69836;BME280;57132;51.972;4.450;2022-09-29T05:58:00;99995.59;;;5.47;100.00
69836;BME280;57132;51.972;4.450;2022-09-29T06:00:26;100007.94;;;5.46;100.00
69836;BME280;57132;51.972;4.450;2022-09-29T06:02:52;100000.59;;;5.51;100.00
69836;BME280;57132;51.972;4.450;2022-09-29T06:05:17;100000.38;;;5.54;100.00
69836;BME280;57132;51.972;4.450;2022-09-29T06:07:42;100000.94;;;5.59;100.00
69836;BME280;57132;51.972;4.450;2022-09-29T06:10:07;100002.53;;;5.62;100.00
69836;BME280;57132;51.972;4.450;2022-09-29T06:12:36;100008.41;;;5.67;100.00
69836;BME280;57132;51.972;4.450;2022-09-29T06:15:04;100012.63;;;5.70;100.00
69836;BME280;57132;51.972;4.450;2022-09-29T06:17:29;100012.38;;;5.74;100.00
69836;BME280;57132;51.972;4.450;2022-09-29T06:19:54;100005.06;;;5.78;100.00
69836;BME280;57132;51.972;4.450;2022-09-29T06:22:20;100014.31;;;5.85;100.00
69836;BME280;57132;51.972;4.450;2022-09-29T06:24:45;100020.94;;;5.92;100.00
69836;BME280;57132;51.972;4.450;2022-09-29T06:27:10;100020.56;;;5.98;100.00
69836;BME280;57132;51.972;4.450;2022-09-29T06:29:35;100023.56;;;6.06;100.00
69836;BME280;57132;51.972;4.450;2022-09-29T06:32:01;100028.25;;;6.15;100.00
69836;BME280;57132;51.972;4.450;2022-09-29T06:34:26;100032.09;;;6.24;100.00
69836;BME280;57132;51.972;4.450;2022-09-29T06:36:51;100030.44;;;6.36;100.00
69836;BME280;57132;51.972;4.450;2022-09-29T06:39:35;100033.34;;;6.46;100.00
69836;BME280;57132;51.972;4.450;2022-09-29T06:42:01;100036.09;;;6.57;100.00
69836;BME280;57132;51.972;4.450;2022-09-29T06:44:27;100033.69;;;6.67;100.00
69836;BME280;57132;51.972;4.450;2022-09-29T06:46:54;100038.16;;;6.79;100.00
69836;BME280;57132;51.972;4.450;2022-09-29T06:49:19;100046.25;;;6.90;100.00
69836;BME280;57132;51.972;4.450;2022-09-29T06:51:44;100043.91;;;6.98;100.00
69836;BME280;57132;51.972;4.450;2022-09-29T06:54:10;100044.75;;;7.11;100.00
69836;BME280;57132;51.972;4.450;2022-09-29T06:56:36;100039.69;;;7.21;100.00
69836;BME280;57132;51.972;4.450;2022-09-29T06:59:01;100039.88;;;7.31;100.00
69836;BME280;57132;51.972;4.450;2022-09-29T07:01:26;100050.59;;;7.42;100.00
69836;BME280;57132;51.972;4.450;2022-09-29T07:03:51;100053.13;;;7.56;100.00
69836;BME280;57132;51.972;4.450;2022-09-29T07:06:17;100056.94;;;7.65;100.00
69836;BME280;57132;51.972;4.450;2022-09-29T07:08:42;100059.47;;;7.67;100.00
69836;BME280;57132;51.972;4.450;2022-09-29T07:11:08;100057.13;;;7.75;100.00
69836;BME280;57132;51.972;4.450;2022-09-29T07:13:34;100057.63;;;7.80;100.00
69836;BME280;57132;51.972;4.450;2022-09-29T07:16:05;100062.50;;;7.86;100.00
69836;BME280;57132;51.972;4.450;2022-09-29T07:18:31;100068.88;;;7.96;100.00
69836;BME280;57132;51.972;4.450;2022-09-29T07:20:58;100071.50;;;8.09;100.00
69836;BME280;57132;51.972;4.450;2022-09-29T07:23:23;100077.72;;;8.21;100.00
69836;BME280;57132;51.972;4.450;2022-09-29T07:25:50;100072.22;;;8.35;100.00
69836;BME280;57132;51.972;4.450;2022-09-29T07:28:16;100079.31;;;8.47;100.00
69836;BME280;57132;51.972;4.450;2022-09-29T07:30:41;100079.63;;;8.55;100.00
69836;BME280;57132;51.972;4.450;2022-09-29T07:33:06;100080.75;;;8.64;100.00
69836;BME280;57132;51.972;4.450;2022-09-29T07:35:31;100083.81;;;8.82;100.00
69836;BME280;57132;51.972;4.450;2022-09-29T07:37:57;100090.38;;;8.89;100.00
69836;BME280;57132;51.972;4.450;2022-09-29T07:40:23;100088.72;;;8.99;100.00
69836;BME280;57132;51.972;4.450;2022-09-29T07:42:48;100087.88;;;9.10;100.00
69836;BME280;57132;51.972;4.450;2022-09-29T07:45:14;100091.69;;;9.19;100.00
69836;BME280;57132;51.972;4.450;2022-09-29T07:47:40;100086.47;;;9.28;100.00
69836;BME280;57132;51.972;4.450;2022-09-29T07:50:05;100086.84;;;9.35;100.00
69836;BME280;57132;51.972;4.450;2022-09-29T07:52:30;100094.72;;;9.48;100.00
69836;BME280;57132;51.972;4.450;2022-09-29T07:54:56;100096.31;;;9.50;100.00
69836;BME280;57132;51.972;4.450;2022-09-29T07:57:21;100101.28;;;9.55;100.00
69836;BME280;57132;51.972;4.450;2022-09-29T07:59:47;100097.53;;;9.69;100.00
69836;BME280;57132;51.972;4.450;2022-09-29T08:02:12;100106.50;;;9.79;100.00
69836;BME280;57132;51.972;4.450;2022-09-29T08:04:37;100113.03;;;9.86;100.00
69836;BME280;57132;51.972;4.450;2022-09-29T08:07:03;100118.00;;;10.02;100.00
69836;BME280;57132;51.972;4.450;2022-09-29T08:09:28;100124.28;;;10.12;100.00
69836;BME280;57132;51.972;4.450;2022-09-29T08:11:53;100120.63;;;10.24;100.00
69836;BME280;57132;51.972;4.450;2022-09-29T08:14:18;100127.25;;;10.41;100.00
69836;BME280;57132;51.972;4.450;2022-09-29T08:16:43;100117.94;;;10.47;100.00
69836;BME280;57132;51.972;4.450;2022-09-29T08:19:09;100131.94;;;10.60;100.00
69836;BME280;57132;51.972;4.450;2022-09-29T08:21:34;100133.91;;;10.58;100.00
69836;BME280;57132;51.972;4.450;2022-09-29T08:24:01;100140.56;;;10.64;100.00
69836;BME280;57132;51.972;4.450;2022-09-29T08:26:28;100144.03;;;10.75;100.00
69836;BME280;57132;51.972;4.450;2022-09-29T08:28:55;100145.81;;;10.86;100.00
69836;BME280;57132;51.972;4.450;2022-09-29T08:31:20;100145.06;;;10.95;100.00
69836;BME280;57132;51.972;4.450;2022-09-29T08:33:50;100153.25;;;11.03;100.00
69836;BME280;57132;51.972;4.450;2022-09-29T08:36:16;100155.88;;;11.15;100.00
69836;BME280;57132;51.972;4.450;2022-09-29T08:38:46;100166.72;;;11.34;100.00
69836;BME280;57132;51.972;4.450;2022-09-29T08:44:02;100166.97;;;11.52;100.00
69836;BME280;57132;51.972;4.450;2022-09-29T08:46:30;100176.50;;;11.66;100.00
69836;BME280;57132;51.972;4.450;2022-09-29T08:48:58;100171.06;;;11.98;100.00
69836;BME280;57132;51.972;4.450;2022-09-29T08:51:40;100177.41;;;12.37;100.00
69836;BME280;57132;51.972;4.450;2022-09-29T08:54:12;100185.53;;;12.76;100.00
69836;BME280;57132;51.972;4.450;2022-09-29T08:56:39;100189.03;;;12.86;100.00
69836;BME280;57132;51.972;4.450;2022-09-29T08:59:06;100194.00;;;13.00;100.00
69836;BME280;57132;51.972;4.450;2022-09-29T09:01:34;100195.13;;;13.17;100.00
69836;BME280;57132;51.972;4.450;2022-09-29T09:11:52;100194.94;;;13.87;94.72
69836;BME280;57132;51.972;4.450;2022-09-29T09:24:36;100203.94;;;13.86;93.11
69836;BME280;57132;51.972;4.450;2022-09-29T09:27:06;100204.50;;;13.99;95.42
69836;BME280;57132;51.972;4.450;2022-09-29T09:29:36;100207.56;;;14.14;93.21
69836;BME280;57132;51.972;4.450;2022-09-29T09:32:07;100198.63;;;14.23;90.03
69836;BME280;57132;51.972;4.450;2022-09-29T09:37:09;100204.50;;;14.64;87.34
69836;BME280;57132;51.972;4.450;2022-09-29T09:42:17;100204.03;;;15.14;84.02
69836;BME280;57132;51.972;4.450;2022-09-29T09:44:48;100205.56;;;15.34;85.13
69836;BME280;57132;51.972;4.450;2022-09-29T09:47:24;100200.03;;;15.18;84.93
69836;BME280;57132;51.972;4.450;2022-09-29T09:49:53;100204.69;;;15.52;82.75
69836;BME280;57132;51.972;4.450;2022-09-29T09:55:04;100212.78;;;15.34;80.96
69836;BME280;57132;51.972;4.450;2022-09-29T10:00:15;100210.63;;;15.37;77.52
69836;BME280;57132;51.972;4.450;2022-09-29T10:05:10;100206.34;;;15.44;79.50
69836;BME280;57132;51.972;4.450;2022-09-29T10:07:36;100211.25;;;15.49;78.19
69836;BME280;57132;51.972;4.450;2022-09-29T10:10:02;100209.38;;;15.49;75.18
69836;BME280;57132;51.972;4.450;2022-09-29T10:12:30;100214.56;;;15.25;72.78
69836;BME280;57132;51.972;4.450;2022-09-29T10:15:05;100215.84;;;15.39;75.01
69836;BME280;57132;51.972;4.450;2022-09-29T10:17:37;100219.47;;;15.30;72.15
69836;BME280;57132;51.972;4.450;2022-09-29T10:20:04;100217.78;;;15.29;74.68
69836;BME280;57132;51.972;4.450;2022-09-29T10:22:30;100217.94;;;15.27;73.36
69836;BME280;57132;51.972;4.450;2022-09-29T10:25:15;100220.63;;;15.45;73.10
69836;BME280;57132;51.972;4.450;2022-09-29T10:27:44;100220.47;;;15.11;69.96
69836;BME280;57132;51.972;4.450;2022-09-29T10:30:23;100215.09;;;15.11;74.63
69836;BME280;57132;51.972;4.450;2022-09-29T10:32:57;100226.38;;;15.32;77.13
69836;BME280;57132;51.972;4.450;2022-09-29T10:38:05;100222.47;;;15.44;76.86
69836;BME280;57132;51.972;4.450;2022-09-29T10:40:30;100220.28;;;15.48;75.38
69836;BME280;57132;51.972;4.450;2022-09-29T10:42:56;100225.91;;;15.55;75.98
69836;BME280;57132;51.972;4.450;2022-09-29T10:45:23;100225.66;;;15.48;73.78
69836;BME280;57132;51.972;4.450;2022-09-29T10:52:43;100232.28;;;15.71;69.86
69836;BME280;57132;51.972;4.450;2022-09-29T10:55:14;100225.50;;;15.85;67.98
69836;BME280;57132;51.972;4.450;2022-09-29T10:57:40;100235.56;;;15.83;66.93
69836;BME280;57132;51.972;4.450;2022-09-29T11:00:06;100223.84;;;15.66;66.52
69836;BME280;57132;51.972;4.450;2022-09-29T11:02:48;100228.06;;;15.69;65.56
69836;BME280;57132;51.972;4.450;2022-09-29T11:05:17;100234.03;;;15.63;64.33
69836;BME280;57132;51.972;4.450;2022-09-29T11:07:44;100233.19;;;15.62;65.36
69836;BME280;57132;51.972;4.450;2022-09-29T11:10:26;100237.03;;;15.60;62.52
69836;BME280;57132;51.972;4.450;2022-09-29T11:12:51;100234.88;;;15.63;65.27
69836;BME280;57132;51.972;4.450;2022-09-29T11:15:21;100241.97;;;15.64;67.96
69836;BME280;57132;51.972;4.450;2022-09-29T11:17:48;100239.44;;;15.81;69.15
69836;BME280;57132;51.972;4.450;2022-09-29T11:20:13;100248.94;;;15.93;70.04
69836;BME280;57132;51.972;4.450;2022-09-29T11:30:59;100252.13;;;16.48;60.47
69836;BME280;57132;51.972;4.450;2022-09-29T11:38:32;100257.81;;;16.45;61.81
69836;BME280;57132;51.972;4.450;2022-09-29T11:43:41;100259.75;;;16.01;65.64
69836;BME280;57132;51.972;4.450;2022-09-29T12:09:25;100279.91;;;14.80;67.34
69836;BME280;57132;51.972;4.450;2022-09-29T12:12:05;100282.06;;;14.76;67.22
69836;BME280;57132;51.972;4.450;2022-09-29T12:17:21;100272.09;;;14.87;67.79
69836;BME280;57132;51.972;4.450;2022-09-29T12:19:52;100274.69;;;15.06;65.10
69836;BME280;57132;51.972;4.450;2022-09-29T12:22:18;100283.53;;;15.34;67.50
69836;BME280;57132;51.972;4.450;2022-09-29T12:25:02;100270.41;;;15.49;65.73
69836;BME280;57132;51.972;4.450;2022-09-29T12:27:38;100279.63;;;15.46;63.11
69836;BME280;57132;51.972;4.450;2022-09-29T12:30:14;100276.94;;;15.46;63.39
69836;BME280;57132;51.972;4.450;2022-09-29T12:32:50;100271.25;;;15.49;63.71
69836;BME280;57132;51.972;4.450;2022-09-29T12:35:19;100283.63;;;15.60;62.09
69836;BME280;57132;51.972;4.450;2022-09-29T12:40:47;100285.31;;;15.79;62.34
69836;BME280;57132;51.972;4.450;2022-09-29T12:43:18;100289.38;;;15.83;61.40
69836;BME280;57132;51.972;4.450;2022-09-29T12:45:58;100290.09;;;15.85;62.43
69836;BME280;57132;51.972;4.450;2022-09-29T12:48:39;100286.75;;;15.91;61.14
69836;BME280;57132;51.972;4.450;2022-09-29T12:51:21;100287.94;;;15.89;60.86
69836;BME280;57132;51.972;4.450;2022-09-29T12:56:23;100288.34;;;15.76;57.60
69836;BME280;57132;51.972;4.450;2022-09-29T12:58:53;100283.72;;;15.68;59.20
69836;BME280;57132;51.972;4.450;2022-09-29T13:06:42;100292.84;;;15.58;60.06
69836;BME280;57132;51.972;4.450;2022-09-29T13:12:44;100287.75;;;15.55;60.63
69836;BME280;57132;51.972;4.450;2022-09-29T13:15:01;100285.06;;;15.55;58.75
69836;BME280;57132;51.972;4.450;2022-09-29T13:17:47;100284.06;;;15.56;58.71
69836;BME280;57132;51.972;4.450;2022-09-29T13:23:03;100299.44;;;15.63;60.05
69836;BME280;57132;51.972;4.450;2022-09-29T13:28:03;100297.38;;;15.75;59.37
69836;BME280;57132;51.972;4.450;2022-09-29T13:30:36;100300.16;;;15.83;60.16
69836;BME280;57132;51.972;4.450;2022-09-29T13:33:18;100299.16;;;15.84;59.64
69836;BME280;57132;51.972;4.450;2022-09-29T13:35:45;100300.84;;;15.85;58.58
69836;BME280;57132;51.972;4.450;2022-09-29T13:38:16;100298.53;;;15.90;59.44
69836;BME280;57132;51.972;4.450;2022-09-29T13:43:39;100296.47;;;15.84;58.99
69836;BME280;57132;51.972;4.450;2022-09-29T13:51:39;100312.75;;;15.83;60.14
69836;BME280;57132;51.972;4.450;2022-09-29T13:54:40;100313.31;;;15.68;60.82
69836;BME280;57132;51.972;4.450;2022-09-29T13:59:23;100319.41;;;15.25;59.13
69836;BME280;57132;51.972;4.450;2022-09-29T14:01:49;100317.06;;;15.12;61.08
69836;BME280;57132;51.972;4.450;2022-09-29T14:04:34;100323.34;;;15.03;63.53
69836;BME280;57132;51.972;4.450;2022-09-29T14:07:03;100323.72;;;14.90;63.55
69836;BME280;57132;51.972;4.450;2022-09-29T14:09:32;100330.09;;;14.89;63.15
69836;BME280;57132;51.972;4.450;2022-09-29T14:12:00;100332.91;;;14.88;63.45
69836;BME280;57132;51.972;4.450;2022-09-29T14:14:39;100334.72;;;14.97;63.62
69836;BME280;57132;51.972;4.450;2022-09-29T14:19:43;100339.75;;;15.10;64.90
69836;BME280;57132;51.972;4.450;2022-09-29T14:38:36;100342.56;;;15.54;62.23
69836;BME280;57132;51.972;4.450;2022-09-29T14:40:35;100344.59;;;15.69;61.84
69836;BME280;57132;51.972;4.450;2022-09-29T14:43:11;100338.59;;;15.76;60.44
69836;BME280;57132;51.972;4.450;2022-09-29T14:48:57;100342.22;;;15.84;60.74
69836;BME280;57132;51.972;4.450;2022-09-29T15:04:40;100365.59;;;15.20;66.48
69836;BME280;57132;51.972;4.450;2022-09-29T15:07:09;100369.69;;;15.15;66.46
69836;BME280;57132;51.972;4.450;2022-09-29T15:09:35;100373.13;;;15.07;67.67
69836;BME280;57132;51.972;4.450;2022-09-29T15:12:01;100378.16;;;14.92;68.85
69836;BME280;57132;51.972;4.450;2022-09-29T15:14:30;100378.75;;;14.86;69.26
69836;BME280;57132;51.972;4.450;2022-09-29T15:22:03;100382.78;;;14.63;70.88
69836;BME280;57132;51.972;4.450;2022-09-29T15:26:59;100386.78;;;14.49;71.18
69836;BME280;57132;51.972;4.450;2022-09-29T15:29:25;100392.69;;;14.52;71.64
69836;BME280;57132;51.972;4.450;2022-09-29T15:31:50;100389.72;;;14.56;71.09
69836;BME280;57132;51.972;4.450;2022-09-29T15:34:19;100394.97;;;14.57;70.77
69836;BME280;57132;51.972;4.450;2022-09-29T15:36:49;100404.56;;;14.60;70.55
69836;BME280;57132;51.972;4.450;2022-09-29T15:39:36;100401.00;;;14.69;71.35
69836;BME280;57132;51.972;4.450;2022-09-29T15:42:15;100398.63;;;14.66;68.29
69836;BME280;57132;51.972;4.450;2022-09-29T15:44:51;100401.00;;;14.69;67.05
69836;BME280;57132;51.972;4.450;2022-09-29T15:47:25;100400.03;;;14.70;67.65
69836;BME280;57132;51.972;4.450;2022-09-29T15:49:51;100401.00;;;14.69;68.74
69836;BME280;57132;51.972;4.450;2022-09-29T15:52:16;100399.06;;;14.61;70.64
69836;BME280;57132;51.972;4.450;2022-09-29T15:54:45;100406.84;;;14.55;71.69
69836;BME280;57132;51.972;4.450;2022-09-29T15:57:28;100404.69;;;14.48;72.59
69836;BME280;57132;51.972;4.450;2022-09-29T16:02:45;100416.59;;;14.36;73.21
69836;BME280;57132;51.972;4.450;2022-09-29T16:05:12;100423.22;;;14.32;73.00
69836;BME280;57132;51.972;4.450;2022-09-29T16:07:52;100421.69;;;14.30;71.93
69836;BME280;57132;51.972;4.450;2022-09-29T16:10:22;100421.97;;;14.26;71.25
69836;BME280;57132;51.972;4.450;2022-09-29T16:15:35;100422.81;;;14.27;70.33
69836;BME280;57132;51.972;4.450;2022-09-29T16:18:05;100436.41;;;14.25;70.03